createdAt,value
2023-02-03T00:01:47.856Z,23.17
2023-02-03T00:04:16.074Z,27.23
2023-02-03T00:06:42.866Z,23.20
2023-02-03T00:09:09.998Z,21.65
2023-02-03T00:11:36.770Z,23.17
2023-02-03T00:14:05.457Z,21.08
2023-02-03T00:16:32.352Z,21.95
2023-02-03T00:18:59.495Z,23.92
2023-02-03T00:21:26.373Z,26.35
2023-02-03T00:23:54.752Z,18.55
2023-02-03T00:26:21.623Z,25.45
2023-02-03T00:28:48.965Z,25.17
2023-02-03T00:31:20.710Z,22.35
2023-02-03T00:33:48.296Z,26.20
2023-02-03T00:36:15.105Z,20.35
2023-02-03T00:38:42.284Z,20.58
2023-02-03T00:41:09.011Z,19.67
2023-02-03T00:43:36.065Z,20.20
2023-02-03T00:46:02.932Z,19.17
2023-02-03T00:48:30.010Z,18.65
2023-02-03T00:50:56.810Z,17.35
2023-02-03T00:53:23.864Z,16.50
2023-02-03T00:55:50.666Z,18.85
2023-02-03T00:58:17.776Z,16.35
2023-02-03T01:00:44.559Z,18.73
2023-02-03T01:03:11.685Z,19.48
2023-02-03T01:05:38.457Z,16.85
2023-02-03T01:08:05.611Z,17.77
2023-02-03T01:10:32.345Z,16.77
2023-02-03T01:12:59.406Z,12.90
2023-02-03T01:15:26.205Z,15.50
2023-02-03T01:17:53.338Z,18.98
2023-02-03T01:20:21.578Z,16.35
2023-02-03T01:22:48.986Z,12.57
2023-02-03T01:25:15.808Z,14.82
2023-02-03T01:27:42.982Z,13.43
2023-02-03T01:30:10.681Z,14.70
2023-02-03T01:32:37.740Z,13.80
2023-02-03T01:35:04.740Z,11.85
2023-02-03T01:37:31.900Z,14.65
2023-02-03T01:39:58.765Z,15.88
2023-02-03T01:42:25.926Z,13.35
2023-02-03T01:44:52.797Z,12.43
2023-02-03T01:47:55.823Z,16.13
2023-02-03T01:50:27.786Z,14.15
2023-02-03T01:52:58.199Z,14.68
2023-02-03T01:55:27.726Z,13.27
2023-02-03T01:58:07.468Z,15.15
2023-02-03T02:00:34.264Z,13.45
2023-02-03T02:03:02.541Z,17.65
2023-02-03T02:05:48.531Z,13.90
2023-02-03T02:08:16.271Z,13.52
2023-02-03T02:10:43.024Z,13.73
2023-02-03T02:13:10.171Z,15.95
2023-02-03T02:16:08.199Z,14.50
2023-02-03T02:18:53.324Z,13.85
2023-02-03T02:21:33.755Z,14.47
2023-02-03T02:24:19.591Z,12.00
2023-02-03T02:26:51.126Z,16.38
2023-02-03T02:29:33.628Z,15.25
2023-02-03T02:32:16.552Z,13.27
2023-02-03T02:35:01.850Z,15.13
2023-02-03T02:37:48.374Z,14.77
2023-02-03T02:40:30.884Z,13.25
2023-02-03T02:43:02.859Z,14.07
2023-02-03T02:45:32.061Z,14.27
2023-02-03T02:48:10.834Z,15.82
2023-02-03T02:50:40.310Z,14.35
2023-02-03T02:53:07.337Z,15.60
2023-02-03T02:55:34.376Z,16.80
2023-02-03T02:58:03.752Z,15.63
2023-02-03T03:00:31.416Z,15.25
2023-02-03T03:02:58.204Z,16.10
2023-02-03T03:05:25.397Z,14.13
2023-02-03T03:07:56.072Z,15.05
2023-02-03T03:10:25.012Z,16.02
2023-02-03T03:12:54.670Z,15.18
2023-02-03T03:15:24.231Z,14.95
2023-02-03T03:17:58.388Z,14.05
2023-02-03T03:20:26.397Z,16.83
2023-02-03T03:22:57.616Z,13.57
2023-02-03T03:25:35.324Z,14.48
2023-02-03T03:28:03.465Z,15.90
2023-02-03T03:30:33.499Z,16.08
2023-02-03T03:33:00.248Z,18.70
2023-02-03T03:35:31.808Z,15.77
2023-02-03T03:38:00.282Z,17.38
2023-02-03T03:40:35.760Z,19.77
2023-02-03T03:43:05.726Z,21.70
2023-02-03T03:45:35.046Z,16.80
2023-02-03T03:48:47.867Z,23.33
2023-02-03T03:51:19.620Z,20.33
2023-02-03T03:53:47.288Z,21.85
2023-02-03T03:56:17.368Z,20.27
2023-02-03T03:58:45.375Z,22.98
2023-02-03T04:01:14.126Z,19.17
2023-02-03T04:03:48.880Z,21.80
2023-02-03T04:06:16.005Z,18.05
2023-02-03T04:08:42.844Z,20.70
2023-02-03T04:11:09.869Z,21.45
2023-02-03T04:13:36.655Z,17.98
2023-02-03T04:16:03.833Z,20.92
2023-02-03T04:18:30.698Z,18.27
2023-02-03T04:20:57.715Z,18.77
2023-02-03T04:23:24.524Z,19.88
2023-02-03T04:25:51.595Z,18.05
2023-02-03T04:28:18.417Z,18.95
2023-02-03T04:30:45.509Z,19.00
2023-02-03T04:33:12.345Z,19.88
2023-02-03T04:35:39.503Z,19.20
2023-02-03T04:38:06.318Z,22.75
2023-02-03T04:40:35.015Z,25.65
2023-02-03T04:43:08.498Z,20.42
2023-02-03T04:45:35.604Z,24.70
2023-02-03T04:48:04.038Z,24.95
2023-02-03T04:50:31.750Z,25.00
2023-02-03T04:53:00.485Z,21.98
2023-02-03T04:55:28.416Z,25.98
2023-02-03T04:57:56.512Z,29.80
2023-02-03T05:00:23.733Z,27.33
2023-02-03T05:02:50.514Z,27.23
2023-02-03T05:05:17.663Z,29.45
2023-02-03T05:07:44.438Z,26.45
2023-02-03T05:10:11.568Z,30.42
2023-02-03T05:12:38.375Z,22.58
2023-02-03T05:15:05.916Z,27.60
2023-02-03T05:17:32.773Z,26.95
2023-02-03T05:19:59.822Z,26.75
2023-02-03T05:22:26.579Z,24.02
2023-02-03T05:24:53.629Z,24.00
2023-02-03T05:27:20.410Z,25.70
2023-02-03T05:29:47.542Z,24.88
2023-02-03T05:32:14.286Z,22.30
2023-02-03T05:34:42.397Z,23.92
2023-02-03T05:37:09.231Z,23.10
2023-02-03T05:39:36.295Z,25.30
2023-02-03T05:42:04.418Z,23.15
2023-02-03T05:44:31.592Z,25.40
2023-02-03T05:46:59.081Z,28.75
2023-02-03T05:49:26.268Z,33.85
2023-02-03T05:51:53.492Z,36.55
2023-02-03T05:54:20.594Z,34.25
2023-02-03T05:56:47.331Z,36.40
2023-02-03T05:59:14.531Z,33.08
2023-02-03T06:01:41.274Z,32.90
2023-02-03T06:04:08.487Z,36.63
2023-02-03T06:06:35.391Z,41.47
2023-02-03T06:09:04.140Z,47.63
2023-02-03T06:11:31.327Z,57.33
2023-02-03T06:14:01.283Z,56.42
2023-02-03T06:16:28.759Z,60.97
2023-02-03T06:18:58.457Z,65.13
2023-02-03T06:21:25.229Z,60.40
2023-02-03T06:23:52.321Z,59.20
2023-02-03T06:26:19.023Z,57.47
2023-02-03T06:28:46.120Z,59.85
2023-02-03T06:31:12.980Z,54.92
2023-02-03T06:33:40.111Z,61.97
2023-02-03T06:36:07.112Z,52.95
2023-02-03T06:38:34.205Z,53.38
2023-02-03T06:41:01.079Z,56.22
2023-02-03T06:43:28.196Z,54.17
2023-02-03T06:45:55.045Z,48.55
2023-02-03T06:48:22.294Z,53.45
2023-02-03T06:50:49.064Z,57.75
2023-02-03T06:53:16.168Z,52.85
2023-02-03T06:55:42.940Z,53.28
2023-02-03T06:58:10.042Z,55.90
2023-02-03T07:00:36.855Z,51.55
2023-02-03T07:03:04.514Z,58.72
2023-02-03T07:05:31.625Z,51.00
2023-02-03T07:07:59.344Z,52.78
2023-02-03T07:10:26.326Z,50.67
2023-02-03T07:12:53.656Z,42.25
2023-02-03T07:15:20.590Z,40.03
2023-02-03T07:17:54.418Z,40.40
2023-02-03T07:20:22.502Z,35.97
2023-02-03T07:22:54.161Z,32.65
2023-02-03T07:25:21.334Z,31.98
2023-02-03T07:27:48.527Z,31.80
2023-02-03T07:30:15.478Z,37.28
2023-02-03T07:32:47.178Z,34.08
2023-02-03T07:35:14.040Z,32.92
2023-02-03T07:37:41.800Z,32.80
2023-02-03T07:40:09.957Z,31.30
2023-02-03T07:42:40.777Z,31.42
2023-02-03T07:45:08.157Z,30.23
2023-02-03T07:47:35.221Z,28.60
2023-02-03T07:50:02.244Z,30.48
2023-02-03T07:52:29.337Z,29.10
2023-02-03T07:54:56.062Z,28.70
2023-02-03T07:57:23.153Z,32.30
2023-02-03T07:59:49.907Z,31.42
2023-02-03T08:02:17.050Z,31.75
2023-02-03T08:04:43.837Z,35.35
2023-02-03T08:07:10.925Z,32.17
2023-02-03T08:09:37.677Z,32.40
2023-02-03T08:12:04.909Z,32.40
2023-02-03T08:14:31.718Z,35.55
2023-02-03T08:16:58.777Z,34.95
2023-02-03T08:19:25.593Z,31.70
2023-02-03T08:21:52.626Z,29.10
2023-02-03T08:24:19.410Z,28.65
2023-02-03T08:26:46.459Z,29.73
2023-02-03T08:29:13.227Z,30.13
2023-02-03T08:31:42.237Z,26.00
2023-02-03T08:34:10.212Z,24.80
2023-02-03T08:36:40.015Z,23.50
2023-02-03T08:39:07.120Z,23.17
2023-02-03T08:41:34.379Z,24.63
2023-02-03T08:44:01.516Z,22.38
2023-02-03T08:46:28.650Z,23.17
2023-02-03T08:48:57.150Z,22.38
2023-02-03T08:51:24.846Z,22.95
2023-02-03T08:53:52.033Z,24.90
2023-02-03T08:56:19.376Z,22.00
2023-02-03T08:58:46.225Z,29.38
2023-02-03T09:01:15.059Z,21.85
2023-02-03T09:03:42.082Z,23.83
2023-02-03T09:06:11.698Z,26.15
2023-02-03T09:08:38.893Z,25.92
2023-02-03T09:11:12.969Z,25.42
2023-02-03T09:13:40.288Z,25.38
2023-02-03T09:16:07.883Z,23.17
2023-02-03T09:18:34.801Z,25.23
2023-02-03T09:21:06.432Z,24.35
2023-02-03T09:23:33.577Z,20.55
2023-02-03T09:26:04.902Z,26.90
2023-02-03T09:28:31.927Z,33.20
2023-02-03T09:31:02.920Z,33.53
2023-02-03T09:33:29.748Z,42.20
2023-02-03T09:35:57.108Z,46.35
2023-02-03T09:38:24.117Z,48.67
2023-02-03T09:41:13.094Z,56.58
2023-02-03T09:43:57.219Z,70.70
2023-02-03T09:46:26.236Z,85.15
2023-02-03T09:49:02.850Z,81.55
2023-02-03T09:51:34.898Z,74.35
2023-02-03T09:54:06.060Z,83.85
2023-02-03T09:56:36.461Z,77.40
2023-02-03T09:59:03.609Z,68.32
2023-02-03T10:01:38.208Z,69.55
2023-02-03T10:04:10.031Z,65.78
2023-02-03T10:06:38.583Z,58.05
2023-02-03T10:09:37.686Z,53.45
2023-02-03T10:12:12.694Z,61.53
2023-02-03T10:14:42.441Z,56.55
2023-02-03T10:17:16.175Z,53.75
2023-02-03T10:20:09.192Z,46.53
2023-02-03T10:22:48.603Z,42.60
2023-02-03T10:25:30.765Z,45.78
2023-02-03T10:28:00.251Z,36.58
2023-02-03T10:30:29.018Z,32.50
2023-02-03T10:33:00.590Z,31.70
2023-02-03T10:35:33.883Z,31.75
2023-02-03T10:38:00.972Z,26.10
2023-02-03T10:40:29.368Z,28.30
2023-02-03T10:43:15.283Z,25.88
2023-02-03T10:45:42.083Z,25.08
2023-02-03T10:48:13.643Z,24.35
2023-02-03T10:50:44.414Z,24.77
2023-02-03T10:53:23.627Z,20.10
2023-02-03T10:56:18.226Z,18.70
2023-02-03T10:58:55.567Z,19.65
2023-02-03T11:01:27.928Z,21.00
2023-02-03T11:03:56.038Z,22.08
2023-02-03T11:06:22.799Z,22.08
2023-02-03T11:08:50.357Z,18.70
2023-02-03T11:11:23.853Z,16.30
2023-02-03T11:13:56.390Z,18.45
2023-02-03T11:16:24.722Z,17.10
2023-02-03T11:19:17.067Z,18.92
2023-02-03T11:21:51.631Z,16.45
2023-02-03T11:24:31.829Z,18.70
2023-02-03T11:27:07.083Z,19.52
2023-02-03T11:29:35.402Z,14.98
2023-02-03T11:32:22.313Z,15.05
2023-02-03T11:35:03.745Z,19.45
2023-02-03T11:37:47.529Z,16.45
2023-02-03T11:40:24.014Z,18.10
2023-02-03T11:42:50.829Z,18.27
2023-02-03T11:45:17.956Z,18.75
2023-02-03T11:47:49.659Z,18.98
2023-02-03T11:50:22.868Z,23.00
2023-02-03T11:53:02.010Z,20.30
2023-02-03T11:55:49.779Z,18.17
2023-02-03T11:58:50.566Z,16.85
2023-02-03T12:02:05.257Z,19.80
2023-02-03T12:05:09.313Z,21.05
2023-02-03T12:07:58.437Z,24.25
2023-02-03T12:10:31.448Z,18.65
2023-02-03T12:13:01.595Z,18.35
2023-02-03T12:15:54.198Z,22.13
2023-02-03T12:18:24.302Z,25.33
2023-02-03T12:21:12.779Z,23.90
2023-02-03T12:24:04.505Z,25.63
2023-02-03T12:27:05.496Z,24.27
2023-02-03T12:29:43.270Z,24.35
2023-02-03T12:32:22.267Z,28.63
2023-02-03T12:35:34.147Z,24.95
2023-02-03T12:38:01.926Z,31.42
2023-02-03T12:40:32.040Z,29.35
2023-02-03T12:43:08.993Z,28.80
2023-02-03T12:45:36.860Z,28.15
2023-02-03T12:48:11.430Z,25.48
2023-02-03T12:50:46.052Z,24.42
2023-02-03T12:53:20.144Z,21.60
2023-02-03T12:56:05.995Z,25.40
2023-02-03T12:59:02.801Z,22.58
2023-02-03T13:01:50.884Z,19.88
2023-02-03T13:04:24.751Z,23.85
2023-02-03T13:06:54.805Z,25.77
2023-02-03T13:09:31.747Z,20.88
2023-02-03T13:12:29.603Z,17.73
2023-02-03T13:14:56.379Z,18.88
2023-02-03T13:17:31.117Z,21.60
2023-02-03T13:19:59.661Z,20.80
2023-02-03T13:22:26.799Z,22.52
2023-02-03T13:25:07.374Z,20.25
2023-02-03T13:27:40.449Z,17.83
2023-02-03T13:30:07.301Z,20.73
2023-02-03T13:32:38.399Z,19.08
2023-02-03T13:35:12.974Z,17.45
2023-02-03T13:37:57.284Z,16.92
2023-02-03T13:40:36.286Z,16.20
2023-02-03T13:43:06.118Z,14.10
2023-02-03T13:45:43.799Z,13.48
2023-02-03T13:48:13.560Z,16.08
2023-02-03T13:50:40.400Z,17.33
2023-02-03T13:53:19.556Z,15.35
2023-02-03T13:55:53.501Z,13.32
2023-02-03T13:58:27.262Z,14.90
2023-02-03T14:00:54.424Z,16.75
2023-02-03T14:03:24.640Z,13.95
2023-02-03T14:05:58.271Z,16.70
2023-02-03T14:08:25.349Z,16.23
2023-02-03T14:11:29.728Z,17.05
2023-02-03T14:14:04.510Z,14.25
2023-02-03T14:16:34.967Z,17.08
2023-02-03T14:19:02.227Z,16.20
2023-02-03T14:21:31.639Z,22.10
2023-02-03T14:24:02.359Z,18.60
2023-02-03T14:26:34.937Z,20.35
2023-02-03T14:29:02.142Z,19.40
2023-02-03T14:31:29.048Z,20.25
2023-02-03T14:34:14.585Z,20.80
2023-02-03T14:36:41.491Z,17.92
2023-02-03T14:39:17.499Z,21.58
2023-02-03T14:42:02.600Z,19.02
2023-02-03T14:44:29.701Z,15.65
2023-02-03T14:47:04.416Z,19.73
2023-02-03T14:49:42.740Z,17.33
2023-02-03T14:52:22.984Z,16.88
2023-02-03T14:55:04.132Z,18.45
2023-02-03T14:57:47.787Z,21.83
2023-02-03T15:00:21.603Z,18.27
2023-02-03T15:03:06.797Z,17.35
2023-02-03T15:05:38.291Z,21.45
2023-02-03T15:08:05.170Z,21.00
2023-02-03T15:10:44.840Z,19.38
2023-02-03T15:13:30.755Z,18.25
2023-02-03T15:16:00.069Z,16.65
2023-02-03T15:18:37.524Z,17.52
2023-02-03T15:21:04.967Z,16.38
2023-02-03T15:23:41.551Z,16.20
2023-02-03T15:26:24.276Z,13.65
2023-02-03T15:28:58.344Z,13.82
2023-02-03T15:31:33.940Z,15.23
2023-02-03T15:34:11.577Z,14.23
2023-02-03T15:36:43.296Z,15.60
2023-02-03T15:39:19.309Z,15.48
2023-02-03T15:41:48.249Z,10.32
2023-02-03T15:44:42.794Z,11.55
2023-02-03T15:47:25.729Z,12.38
2023-02-03T15:49:59.348Z,12.73
2023-02-03T15:52:26.472Z,12.20
2023-02-03T15:54:56.178Z,8.10
2023-02-03T15:57:28.201Z,7.47
2023-02-03T16:00:09.676Z,7.78
2023-02-03T16:02:44.136Z,9.07
2023-02-03T16:05:32.472Z,7.32
2023-02-03T16:08:38.275Z,8.32
2023-02-03T16:11:41.714Z,7.55
2023-02-03T16:14:12.011Z,10.15
2023-02-03T16:16:47.199Z,9.23
2023-02-03T16:19:22.737Z,12.27
2023-02-03T16:21:52.342Z,7.28
2023-02-03T16:24:40.989Z,10.10
2023-02-03T16:27:26.295Z,13.80
2023-02-03T16:30:13.140Z,13.32
2023-02-03T16:32:58.597Z,13.57
2023-02-03T16:38:34.664Z,13.10
2023-02-03T16:41:34.487Z,13.82
2023-02-03T16:44:19.807Z,15.80
2023-02-03T16:47:05.575Z,14.77
2023-02-03T16:49:51.049Z,12.43
2023-02-03T16:54:44.894Z,13.45
2023-02-03T16:57:11.961Z,12.98
2023-02-03T16:59:38.929Z,12.05
2023-02-03T17:02:05.979Z,16.40
2023-02-03T17:04:33.249Z,14.50
2023-02-03T17:07:00.458Z,14.15
2023-02-03T17:09:27.345Z,13.70
2023-02-03T17:11:54.898Z,11.32
2023-02-03T17:14:21.633Z,16.15
2023-02-03T17:16:48.787Z,12.73
2023-02-03T17:19:15.635Z,18.08
2023-02-03T17:21:42.729Z,15.00
2023-02-03T17:24:09.560Z,14.75
2023-02-03T17:26:36.663Z,14.65
2023-02-03T17:29:03.772Z,17.30
2023-02-03T17:31:31.308Z,15.38
2023-02-03T17:33:58.373Z,14.40
2023-02-03T17:36:25.442Z,20.17
2023-02-03T17:55:23.274Z,21.20
2023-02-03T17:57:50.642Z,21.02
2023-02-03T18:00:17.690Z,22.58
2023-02-03T18:02:44.783Z,22.70
2023-02-03T18:05:11.659Z,22.17
2023-02-03T18:07:38.814Z,21.80
2023-02-03T18:10:05.885Z,26.45
2023-02-03T18:12:33.009Z,22.88
2023-02-03T18:14:59.820Z,17.77
2023-02-03T18:17:26.930Z,17.50
2023-02-03T18:19:56.202Z,16.55
2023-02-03T18:22:23.804Z,18.85
2023-02-03T18:24:54.949Z,13.75
2023-02-03T18:27:22.059Z,16.50
2023-02-03T18:29:48.854Z,11.25
2023-02-03T18:32:16.196Z,18.38
2023-02-03T18:34:43.166Z,14.73
2023-02-03T18:37:10.274Z,13.60
2023-02-03T18:39:37.095Z,10.77
2023-02-03T18:42:04.622Z,11.10
2023-02-03T18:44:33.885Z,10.80
2023-02-03T18:47:07.747Z,14.95
2023-02-03T18:49:35.697Z,12.55
2023-02-03T18:52:02.971Z,13.07
2023-02-03T18:54:29.846Z,13.10
2023-02-03T18:56:58.991Z,12.82
2023-02-03T18:59:26.121Z,13.40
2023-02-03T19:01:53.363Z,10.32
2023-02-03T19:04:20.200Z,11.98
2023-02-03T19:06:47.724Z,15.38
2023-02-03T19:09:17.015Z,12.95
2023-02-03T19:11:44.568Z,12.25
2023-02-03T19:14:12.679Z,15.02
2023-02-03T19:16:39.952Z,11.70
2023-02-03T19:19:06.694Z,16.20
2023-02-03T19:21:33.841Z,11.88
2023-02-03T19:24:00.731Z,13.23
2023-02-03T19:26:27.959Z,14.70
2023-02-03T19:28:55.940Z,19.50
2023-02-03T19:31:23.250Z,18.38
2023-02-03T19:33:50.272Z,23.65
2023-02-03T19:36:17.360Z,22.42
2023-02-03T19:38:44.239Z,24.23
2023-02-03T19:41:11.905Z,29.52
2023-02-03T19:43:40.014Z,26.25
2023-02-03T19:46:07.957Z,25.77
2023-02-03T19:48:34.915Z,26.75
2023-02-03T19:51:02.000Z,24.63
2023-02-03T19:53:28.807Z,24.63
2023-02-03T19:55:55.960Z,22.85
2023-02-03T19:58:24.140Z,23.20
2023-02-03T20:00:51.410Z,21.35
2023-02-03T20:03:19.705Z,21.83
2023-02-03T20:05:47.004Z,21.25
2023-02-03T20:08:14.940Z,21.27
2023-02-03T20:10:44.686Z,26.13
2023-02-03T20:13:15.197Z,21.55
2023-02-03T20:15:42.367Z,21.40
2023-02-03T20:18:09.213Z,22.15
2023-02-03T20:20:36.421Z,22.13
2023-02-03T20:23:03.361Z,19.30
2023-02-03T20:25:30.584Z,25.10
2023-02-03T20:27:58.329Z,24.70
2023-02-03T20:30:25.575Z,23.38
2023-02-03T20:32:54.645Z,27.02
2023-02-03T20:35:23.718Z,21.40
2023-02-03T20:37:51.037Z,25.58
2023-02-03T20:40:18.982Z,22.50
2023-02-03T20:42:46.046Z,20.08
2023-02-03T20:45:16.420Z,29.80
2023-02-03T20:47:43.565Z,18.00
2023-02-03T20:50:18.243Z,19.25
2023-02-03T20:52:45.966Z,21.30
2023-02-03T20:55:14.451Z,20.23
2023-02-03T20:57:41.504Z,20.70
2023-02-03T21:00:29.308Z,21.25
2023-02-03T21:03:15.099Z,20.38
2023-02-03T21:05:43.232Z,20.83
2023-02-03T21:08:19.646Z,16.08
2023-02-03T21:10:47.365Z,14.98
2023-02-03T21:13:22.438Z,17.65
2023-02-03T21:18:46.592Z,22.30
2023-02-03T21:21:24.688Z,26.02
2023-02-03T21:23:52.124Z,21.33
2023-02-03T21:26:26.960Z,24.08
2023-02-03T21:28:58.043Z,23.60
2023-02-03T21:31:30.020Z,28.38
2023-02-03T21:33:58.183Z,31.90
2023-02-03T21:36:27.520Z,26.23
2023-02-03T21:38:55.495Z,28.92
2023-02-03T21:41:23.741Z,33.00
2023-02-03T21:43:55.112Z,33.08
2023-02-03T21:46:26.403Z,34.92
2023-02-03T21:48:57.754Z,35.95
2023-02-03T21:51:35.647Z,36.30
2023-02-03T21:54:30.232Z,37.42
2023-02-03T21:56:57.878Z,34.25
2023-02-03T21:59:29.534Z,31.40
2023-02-03T22:01:58.613Z,32.47
2023-02-03T22:04:26.508Z,31.88
2023-02-03T22:06:54.362Z,30.77
2023-02-03T22:09:22.934Z,31.52
2023-02-03T22:11:50.404Z,29.90
2023-02-03T22:14:17.690Z,28.05
2023-02-03T22:16:44.886Z,23.33
2023-02-03T22:19:11.808Z,23.75
2023-02-03T22:21:39.085Z,25.75
2023-02-03T22:24:06.391Z,20.08
2023-02-03T22:26:33.475Z,23.58
2023-02-03T22:29:00.349Z,23.10
2023-02-03T22:31:27.578Z,14.93
2023-02-03T22:33:54.466Z,16.80
2023-02-03T22:36:23.581Z,14.93
2023-02-03T22:38:50.695Z,13.70
2023-02-03T22:41:18.016Z,12.63
2023-02-03T22:43:44.824Z,11.63
2023-02-03T22:46:11.940Z,11.23
2023-02-03T22:48:38.796Z,8.23
2023-02-03T22:51:06.145Z,11.70
2023-02-03T22:53:32.957Z,8.35
2023-02-03T22:55:59.977Z,11.35
2023-02-03T22:58:26.712Z,9.60
2023-02-03T23:00:53.864Z,8.60
2023-02-03T23:03:20.649Z,7.63
2023-02-03T23:05:47.741Z,9.63
2023-02-03T23:08:21.722Z,6.80
2023-02-03T23:10:48.918Z,6.00
2023-02-03T23:13:15.719Z,8.45
2023-02-03T23:15:42.825Z,8.13
2023-02-03T23:18:09.600Z,8.00
2023-02-03T23:20:36.708Z,7.05
2023-02-03T23:23:03.604Z,5.90
2023-02-03T23:25:30.691Z,6.95
2023-02-03T23:27:58.134Z,5.40
2023-02-03T23:30:25.299Z,4.70
2023-02-03T23:32:52.292Z,6.68
2023-02-03T23:35:37.897Z,5.55
2023-02-03T23:38:04.689Z,6.72
2023-02-03T23:40:32.149Z,11.77
2023-02-03T23:42:59.065Z,6.05
2023-02-03T23:45:26.130Z,4.50
2023-02-03T23:47:52.937Z,4.68
2023-02-03T23:50:20.208Z,6.25
2023-02-03T23:52:47.587Z,5.65
2023-02-03T23:55:17.257Z,5.70
2023-02-03T23:57:44.132Z,4.32
